Back to Top

Language: 

My Weather Underground Personal Weather Station Historical Data with Graphs...

Delerius Weather Station Historical Data
Daily Summary for May 3, 2017 Units:  English    Metric   Both
« Previous Day
Next Day »
Daily Weekly Monthly Yearly Custom
  High: Low: Average:
Temperature: 59.5 °F 41.5 °F 50.2 °F
Dew Point: 45.0 °F 35.0 °F 41.5 °F
Humidity: 93 % 40 % 74 %
Wind Speed: 13.0 mph 2.0 mph 7.5 mph
Wind Gust: 26.0 mph - -
Wind:- - ENE
Pressure: 30.33 in 30.28 in -
Precipitation: 0.00 in    
Historical Graphs
 
 
Tabular Data for May 3, 2017
Time Temperature Dew Point Pressure Wind Wind Speed Wind Gust Humidity Rainfall Rate (Hourly) solar Conditions
00:04 46.8 °F 43.4 °F 30.31 in ENE 4.0 mph 12.0 mph 88 % 0.00 in 0 W/m2
00:09 46.6 °F 43.2 °F 30.31 in NE 4.0 mph 11.0 mph 88 % 0.00 in 0 W/m2
00:14 46.6 °F 43.2 °F 30.30 in NNE 6.0 mph 12.0 mph 88 % 0.00 in 0 W/m2
00:24 46.4 °F 43.0 °F 30.30 in NNE 6.0 mph 13.0 mph 88 % 0.00 in 0 W/m2
00:29 46.2 °F 42.9 °F 30.31 in NNE 7.0 mph 13.0 mph 88 % 0.00 in 0 W/m2
00:34 46.2 °F 42.9 °F 30.30 in NNE 6.0 mph 12.0 mph 88 % 0.00 in 0 W/m2
00:39 46.2 °F 42.9 °F 30.30 in NNE 5.0 mph 10.0 mph 88 % 0.00 in 0 W/m2
00:44 46.0 °F 42.7 °F 30.30 in NNE 6.0 mph 12.0 mph 88 % 0.00 in 0 W/m2
00:50 46.0 °F 42.7 °F 30.30 in NNE 5.0 mph 14.0 mph 88 % 0.00 in 0 W/m2
00:55 46.0 °F 43.0 °F 30.30 in NNE 5.0 mph 14.0 mph 89 % 0.00 in 0 W/m2
01:00 45.9 °F 42.8 °F 30.30 in NNE 4.0 mph 10.0 mph 89 % 0.00 in 0 W/m2
01:05 45.9 °F 42.8 °F 30.30 in NNE 6.0 mph 14.0 mph 89 % 0.00 in 0 W/m2
01:10 45.7 °F 42.6 °F 30.30 in NNE 7.0 mph 14.0 mph 89 % 0.00 in 0 W/m2
01:15 45.5 °F 42.4 °F 30.30 in NNE 6.0 mph 13.0 mph 89 % 0.00 in 0 W/m2
01:20 45.3 °F 42.3 °F 30.30 in NNE 6.0 mph 13.0 mph 89 % 0.00 in 0 W/m2
01:25 45.1 °F 42.1 °F 30.30 in NNE 6.0 mph 12.0 mph 89 % 0.00 in 0 W/m2
01:30 45.1 °F 42.1 °F 30.30 in North 6.0 mph 12.0 mph 89 % 0.00 in 0 W/m2
01:35 44.8 °F 42.0 °F 30.30 in North 6.0 mph 12.0 mph 90 % 0.00 in 0 W/m2
01:40 44.6 °F 41.8 °F 30.30 in North 6.0 mph 12.0 mph 90 % 0.00 in 0 W/m2
01:45 44.4 °F 41.7 °F 30.30 in North 6.0 mph 11.0 mph 90 % 0.00 in 0 W/m2
01:50 44.2 °F 41.5 °F 30.31 in North 6.0 mph 11.0 mph 90 % 0.00 in 0 W/m2
01:55 44.1 °F 41.3 °F 30.31 in North 5.0 mph 11.0 mph 90 % 0.00 in 0 W/m2
02:00 43.9 °F 41.4 °F 30.31 in North 4.0 mph 10.0 mph 91 % 0.00 in 0 W/m2
02:05 43.7 °F 41.0 °F 30.31 in North 3.0 mph 9.0 mph 90 % 0.00 in 0 W/m2
02:10 43.5 °F 41.1 °F 30.31 in North 4.0 mph 10.0 mph 91 % 0.00 in 0 W/m2
02:15 43.3 °F 40.9 °F 30.31 in North 5.0 mph 10.0 mph 91 % 0.00 in 0 W/m2
02:20 43.3 °F 40.9 °F 30.31 in NNE 5.0 mph 9.0 mph 91 % 0.00 in 0 W/m2
02:25 43.2 °F 40.7 °F 30.30 in North 5.0 mph 10.0 mph 91 % 0.00 in 0 W/m2
02:30 43.2 °F 40.7 °F 30.31 in North 5.0 mph 10.0 mph 91 % 0.00 in 0 W/m2
02:35 43.0 °F 40.5 °F 30.30 in North 5.0 mph 9.0 mph 91 % 0.00 in 0 W/m2
02:40 42.8 °F 40.4 °F 30.30 in NNW 6.0 mph 12.0 mph 91 % 0.00 in 0 W/m2
02:45 42.6 °F 40.5 °F 30.30 in NNW 6.0 mph 12.0 mph 92 % 0.00 in 0 W/m2
02:50 42.6 °F 40.5 °F 30.30 in North 6.0 mph 12.0 mph 92 % 0.00 in 0 W/m2
02:55 42.6 °F 40.5 °F 30.30 in North 6.0 mph 12.0 mph 92 % 0.00 in 0 W/m2
03:00 42.4 °F 40.3 °F 30.30 in North 4.0 mph 10.0 mph 92 % 0.00 in 0 W/m2
03:05 42.4 °F 40.3 °F 30.30 in North 5.0 mph 11.0 mph 92 % 0.00 in 0 W/m2
03:10 42.3 °F 40.1 °F 30.30 in North 6.0 mph 11.0 mph 92 % 0.00 in 0 W/m2
03:15 42.3 °F 40.1 °F 30.30 in North 5.0 mph 12.0 mph 92 % 0.00 in 0 W/m2
03:20 42.3 °F 40.1 °F 30.30 in North 5.0 mph 12.0 mph 92 % 0.00 in 0 W/m2
03:25 42.1 °F 39.9 °F 30.30 in North 6.0 mph 11.0 mph 92 % 0.00 in 0 W/m2
03:30 42.1 °F 39.9 °F 30.30 in North 6.0 mph 11.0 mph 92 % 0.00 in 0 W/m2
03:35 42.1 °F 39.9 °F 30.30 in North 5.0 mph 9.0 mph 92 % 0.00 in 0 W/m2
03:40 42.1 °F 39.9 °F 30.30 in North 5.0 mph 11.0 mph 92 % 0.00 in 0 W/m2
03:45 41.9 °F 39.7 °F 30.30 in North 6.0 mph 11.0 mph 92 % 0.00 in 0 W/m2
03:50 41.9 °F 39.7 °F 30.30 in North 5.0 mph 10.0 mph 92 % 0.00 in 0 W/m2
03:55 41.7 °F 39.6 °F 30.30 in North 5.0 mph 10.0 mph 92 % 0.00 in 0 W/m2
04:00 41.7 °F 39.6 °F 30.30 in North 5.0 mph 10.0 mph 92 % 0.00 in 0 W/m2
04:05 41.7 °F 39.6 °F 30.31 in North 5.0 mph 10.0 mph 92 % 0.00 in 0 W/m2
04:10 41.5 °F 39.4 °F 30.30 in North 5.0 mph 11.0 mph 92 % 0.00 in 0 W/m2
04:15 41.5 °F 39.4 °F 30.30 in North 5.0 mph 11.0 mph 92 % 0.00 in 0 W/m2
04:20 41.5 °F 39.4 °F 30.30 in NNE 6.0 mph 11.0 mph 92 % 0.00 in 0 W/m2
04:25 41.5 °F 39.7 °F 30.30 in NNE 6.0 mph 12.0 mph 93 % 0.00 in 0 W/m2
04:30 41.5 °F 39.7 °F 30.30 in NNE 6.0 mph 15.0 mph 93 % 0.00 in 0 W/m2
04:35 41.7 °F 39.8 °F 30.30 in NNE 6.0 mph 15.0 mph 93 % 0.00 in 0 W/m2
04:40 41.7 °F 39.8 °F 30.30 in NNE 6.0 mph 13.0 mph 93 % 0.00 in 0 W/m2
04:45 41.7 °F 39.6 °F 30.30 in NNE 6.0 mph 13.0 mph 92 % 0.00 in 0 W/m2
04:50 41.5 °F 39.4 °F 30.30 in NNE 5.0 mph 12.0 mph 92 % 0.00 in 0 W/m2
04:55 41.5 °F 39.4 °F 30.30 in NNE 5.0 mph 12.0 mph 92 % 0.00 in 0 W/m2
05:01 41.5 °F 39.4 °F 30.30 in NNE 6.0 mph 12.0 mph 92 % 0.00 in 0 W/m2
05:06 41.7 °F 39.6 °F 30.30 in NNE 7.0 mph 12.0 mph 92 % 0.00 in 0 W/m2
05:08 41.7 °F 39.6 °F 30.30 in NNE 7.0 mph 12.0 mph 92 % 0.00 in 0 W/m2
05:13 41.7 °F 39.6 °F 30.30 in NNE 7.0 mph 12.0 mph 92 % 0.00 in 0 W/m2
05:14 41.7 °F 39.6 °F 30.30 in NNE 7.0 mph 12.0 mph 92 % 0.00 in 0 W/m2
05:19 41.7 °F 39.6 °F 30.30 in NNE 6.0 mph 11.0 mph 92 % 0.00 in 0 W/m2
05:24 41.7 °F 39.6 °F 30.30 in NNE 6.0 mph 11.0 mph 92 % 0.00 in 0 W/m2
05:29 41.5 °F 39.4 °F 30.30 in NNE 6.0 mph 11.0 mph 92 % 0.00 in 5 W/m2
05:34 41.5 °F 39.4 °F 30.30 in NNE 6.0 mph 10.0 mph 92 % 0.00 in 7 W/m2
05:39 41.5 °F 39.4 °F 30.30 in NNE 6.0 mph 12.0 mph 92 % 0.00 in 9 W/m2
05:44 41.5 °F 39.4 °F 30.31 in NNE 7.0 mph 12.0 mph 92 % 0.00 in 12 W/m2
05:49 41.5 °F 39.4 °F 30.31 in NNE 7.0 mph 13.0 mph 92 % 0.00 in 14 W/m2
05:54 41.7 °F 39.6 °F 30.31 in NNE 7.0 mph 14.0 mph 92 % 0.00 in 16 W/m2
05:59 41.7 °F 39.6 °F 30.31 in NNE 7.0 mph 14.0 mph 92 % 0.00 in 18 W/m2
06:04 41.7 °F 39.6 °F 30.31 in NNE 7.0 mph 14.0 mph 92 % 0.00 in 21 W/m2
06:09 41.7 °F 39.6 °F 30.31 in NNE 7.0 mph 14.0 mph 92 % 0.00 in 23 W/m2
06:14 41.9 °F 39.7 °F 30.31 in NNE 7.0 mph 14.0 mph 92 % 0.00 in 25 W/m2
06:19 42.1 °F 39.9 °F 30.31 in NNE 8.0 mph 14.0 mph 92 % 0.00 in 56 W/m2
06:24 42.3 °F 40.1 °F 30.31 in NNE 7.0 mph 14.0 mph 92 % 0.00 in 81 W/m2
06:29 42.4 °F 40.0 °F 30.31 in NNE 8.0 mph 14.0 mph 91 % 0.00 in 91 W/m2
06:34 42.6 °F 40.2 °F 30.31 in NNE 8.0 mph 14.0 mph 91 % 0.00 in 100 W/m2
06:39 43.0 °F 40.5 °F 30.31 in NNE 7.0 mph 12.0 mph 91 % 0.00 in 109 W/m2
06:44 43.2 °F 40.4 °F 30.31 in NNE 6.0 mph 14.0 mph 90 % 0.00 in 120 W/m2
06:49 43.3 °F 40.6 °F 30.31 in NNE 6.0 mph 14.0 mph 90 % 0.00 in 128 W/m2
06:54 43.5 °F 40.8 °F 30.31 in NNE 6.0 mph 11.0 mph 90 % 0.00 in 104 W/m2
06:59 43.7 °F 41.0 °F 30.31 in NNE 6.0 mph 15.0 mph 90 % 0.00 in 158 W/m2
07:04 43.9 °F 41.1 °F 30.31 in NNE 7.0 mph 15.0 mph 90 % 0.00 in 172 W/m2
07:09 44.2 °F 41.5 °F 30.31 in NNE 7.0 mph 13.0 mph 90 % 0.00 in 188 W/m2
07:14 44.6 °F 41.6 °F 30.31 in NNE 7.0 mph 13.0 mph 89 % 0.00 in 199 W/m2
07:19 45.0 °F 41.6 °F 30.31 in NNE 6.0 mph 15.0 mph 88 % 0.00 in 209 W/m2
07:24 45.3 °F 41.7 °F 30.31 in NNE 7.0 mph 16.0 mph 87 % 0.00 in 225 W/m2
07:29 45.7 °F 41.7 °F 30.31 in NNE 8.0 mph 16.0 mph 86 % 0.00 in 237 W/m2
07:34 46.0 °F 42.1 °F 30.32 in NNE 8.0 mph 14.0 mph 86 % 0.00 in 250 W/m2
07:39 46.4 °F 42.1 °F 30.32 in NNE 7.0 mph 13.0 mph 85 % 0.00 in 264 W/m2
07:45 46.8 °F 42.2 °F 30.32 in NNE 7.0 mph 13.0 mph 84 % 0.00 in 278 W/m2
07:50 47.1 °F 42.5 °F 30.32 in NNE 6.0 mph 13.0 mph 84 % 0.00 in 290 W/m2
07:55 47.3 °F 42.4 °F 30.32 in NNE 7.0 mph 15.0 mph 83 % 0.00 in 306 W/m2
07:59 47.7 °F 42.8 °F 30.32 in NNE 8.0 mph 15.0 mph 83 % 0.00 in 318 W/m2
08:00 47.7 °F 42.8 °F 30.32 in NNE 7.0 mph 15.0 mph 83 % 0.00 in 322 W/m2
08:05 47.8 °F 42.9 °F 30.32 in NNE 6.0 mph 14.0 mph 83 % 0.00 in 341 W/m2
08:10 48.4 °F 42.8 °F 30.32 in NNE 7.0 mph 13.0 mph 81 % 0.00 in 352 W/m2
08:15 48.6 °F 43.0 °F 30.32 in NNE 7.0 mph 13.0 mph 81 % 0.00 in 366 W/m2
08:21 48.9 °F 43.0 °F 30.32 in NNE 6.0 mph 13.0 mph 80 % 0.00 in 383 W/m2
08:26 49.3 °F 43.0 °F 30.32 in NNE 8.0 mph 14.0 mph 79 % 0.00 in 399 W/m2
08:31 49.6 °F 43.1 °F 30.32 in NNE 8.0 mph 15.0 mph 78 % 0.00 in 413 W/m2
08:36 50.0 °F 43.1 °F 30.32 in NNE 8.0 mph 18.0 mph 77 % 0.00 in 427 W/m2
08:41 50.4 °F 43.1 °F 30.32 in NE 7.0 mph 18.0 mph 76 % 0.00 in 434 W/m2
08:46 50.9 °F 43.3 °F 30.32 in NE 6.0 mph 12.0 mph 75 % 0.00 in 455 W/m2
08:51 51.4 °F 42.7 °F 30.32 in NE 6.0 mph 12.0 mph 72 % 0.00 in 469 W/m2
08:56 52.0 °F 42.9 °F 30.32 in NE 6.0 mph 15.0 mph 71 % 0.00 in 483 W/m2
09:02 52.3 °F 42.1 °F 30.32 in NE 8.0 mph 20.0 mph 68 % 0.00 in 494 W/m2
09:07 52.2 °F 42.3 °F 30.31 in NE 10.0 mph 20.0 mph 69 % 0.00 in 512 W/m2
09:12 52.3 °F 42.5 °F 30.31 in NE 9.0 mph 18.0 mph 69 % 0.00 in 524 W/m2
09:17 52.5 °F 42.6 °F 30.32 in NE 9.0 mph 18.0 mph 69 % 0.00 in 540 W/m2
09:22 52.9 °F 42.6 °F 30.32 in NE 9.0 mph 18.0 mph 68 % 0.00 in 545 W/m2
09:27 53.2 °F 42.6 °F 30.31 in NE 7.0 mph 18.0 mph 67 % 0.00 in 552 W/m2
09:32 53.4 °F 42.7 °F 30.31 in NE 8.0 mph 19.0 mph 67 % 0.00 in 573 W/m2
09:37 53.6 °F 42.5 °F 30.31 in NE 9.0 mph 19.0 mph 66 % 0.00 in 589 W/m2
09:42 54.0 °F 42.1 °F 30.31 in ENE 9.0 mph 19.0 mph 64 % 0.00 in 589 W/m2
09:47 54.1 °F 42.2 °F 30.31 in NE 10.0 mph 21.0 mph 64 % 0.00 in 613 W/m2
09:52 54.1 °F 41.4 °F 30.31 in NE 11.0 mph 23.0 mph 62 % 0.00 in 619 W/m2
09:57 54.7 °F 41.1 °F 30.31 in ENE 11.0 mph 23.0 mph 60 % 0.00 in 629 W/m2
10:02 55.0 °F 41.8 °F 30.31 in ENE 9.0 mph 19.0 mph 61 % 0.00 in 645 W/m2
10:07 55.6 °F 41.5 °F 30.31 in ENE 8.0 mph 20.0 mph 59 % 0.00 in 656 W/m2
10:12 55.6 °F 41.5 °F 30.31 in NE 9.0 mph 20.0 mph 59 % 0.00 in 670 W/m2
10:17 55.6 °F 41.5 °F 30.31 in NE 10.0 mph 20.0 mph 59 % 0.00 in 694 W/m2
10:22 55.8 °F 41.2 °F 30.31 in NE 10.0 mph 20.0 mph 58 % 0.00 in 691 W/m2
10:27 55.6 °F 41.0 °F 30.31 in NE 11.0 mph 24.0 mph 58 % 0.00 in 353 W/m2
10:32 55.6 °F 41.9 °F 30.30 in NE 10.0 mph 24.0 mph 60 % 0.00 in 768 W/m2
10:33 55.6 °F 41.9 °F 30.30 in NE 10.0 mph 21.0 mph 60 % 0.00 in 768 W/m2
10:38 55.8 °F 41.2 °F 30.30 in NE 10.0 mph 21.0 mph 58 % 0.00 in 306 W/m2
10:43 55.9 °F 40.9 °F 30.30 in NE 11.0 mph 20.0 mph 57 % 0.00 in 527 W/m2
10:48 56.1 °F 41.1 °F 30.30 in NE 11.0 mph 20.0 mph 57 % 0.00 in 462 W/m2
10:53 55.9 °F 40.5 °F 30.30 in NE 10.0 mph 20.0 mph 56 % 0.00 in 352 W/m2
10:58 55.9 °F 40.0 °F 30.30 in NE 10.0 mph 20.0 mph 55 % 0.00 in 478 W/m2
11:03 56.1 °F 41.1 °F 30.30 in NE 10.0 mph 21.0 mph 57 % 0.00 in 1000 W/m2
11:08 57.0 °F 42.4 °F 30.30 in ENE 9.0 mph 21.0 mph 58 % 0.00 in 979 W/m2
11:13 57.6 °F 40.1 °F 30.30 in ENE 10.0 mph 26.0 mph 52 % 0.00 in 979 W/m2
11:18 57.2 °F 40.7 °F 30.30 in ENE 10.0 mph 26.0 mph 54 % 0.00 in 606 W/m2
11:23 57.4 °F 40.9 °F 30.30 in ENE 10.0 mph 21.0 mph 54 % 0.00 in 531 W/m2
11:28 57.4 °F 40.4 °F 30.30 in NE 10.0 mph 21.0 mph 53 % 0.00 in 448 W/m2
11:33 57.4 °F 40.4 °F 30.30 in ENE 10.0 mph 21.0 mph 53 % 0.00 in 417 W/m2
11:38 57.4 °F 39.9 °F 30.30 in ENE 10.0 mph 18.0 mph 52 % 0.00 in 949 W/m2
11:43 57.9 °F 38.9 °F 30.30 in ENE 9.0 mph 19.0 mph 49 % 0.00 in 970 W/m2
11:48 57.9 °F 39.4 °F 30.30 in ENE 10.0 mph 20.0 mph 50 % 0.00 in 960 W/m2
11:53 58.6 °F 40.6 °F 30.30 in ENE 9.0 mph 20.0 mph 51 % 0.00 in 406 W/m2
11:58 58.3 °F 38.7 °F 30.30 in ENE 10.0 mph 18.0 mph 48 % 0.00 in 418 W/m2
12:03 57.6 °F 38.5 °F 30.30 in ENE 10.0 mph 18.0 mph 49 % 0.00 in 357 W/m2
12:08 57.4 °F 39.4 °F 30.30 in ENE 9.0 mph 19.0 mph 51 % 0.00 in 436 W/m2
12:13 57.4 °F 38.4 °F 30.30 in ENE 11.0 mph 25.0 mph 49 % 0.00 in 489 W/m2
12:18 57.4 °F 38.4 °F 30.30 in ENE 13.0 mph 25.0 mph 49 % 0.00 in 649 W/m2
12:19 57.4 °F 38.4 °F 30.30 in ENE 13.0 mph 25.0 mph 49 % 0.00 in 649 W/m2
12:23 57.4 °F 38.9 °F 30.30 in ENE 11.0 mph 22.0 mph 50 % 0.00 in 552 W/m2
12:29 57.6 °F 38.0 °F 30.30 in ENE 9.0 mph 19.0 mph 48 % 0.00 in 513 W/m2
12:34 57.7 °F 38.2 °F 30.29 in ENE 9.0 mph 18.0 mph 48 % 0.00 in 599 W/m2
12:39 57.7 °F 37.6 °F 30.30 in ENE 10.0 mph 21.0 mph 47 % 0.00 in 559 W/m2
12:44 57.4 °F 36.8 °F 30.29 in ENE 11.0 mph 21.0 mph 46 % 0.00 in 436 W/m2
12:49 57.6 °F 36.9 °F 30.30 in ENE 11.0 mph 22.0 mph 46 % 0.00 in 503 W/m2
12:54 57.7 °F 37.1 °F 30.30 in ENE 11.0 mph 22.0 mph 46 % 0.00 in 450 W/m2
12:59 57.6 °F 37.5 °F 30.29 in ENE 10.0 mph 20.0 mph 47 % 0.00 in 589 W/m2
13:04 57.7 °F 37.6 °F 30.29 in ENE 9.0 mph 21.0 mph 47 % 0.00 in 599 W/m2
13:09 57.7 °F 37.6 °F 30.29 in ENE 9.0 mph 21.0 mph 47 % 0.00 in 570 W/m2
13:14 57.6 °F 36.9 °F 30.29 in ENE 10.0 mph 21.0 mph 46 % 0.00 in 512 W/m2
13:19 57.6 °F 36.9 °F 30.29 in NE 9.0 mph 24.0 mph 46 % 0.00 in 362 W/m2
13:24 57.7 °F 38.2 °F 30.29 in ENE 8.0 mph 24.0 mph 48 % 0.00 in 710 W/m2
13:29 58.3 °F 38.1 °F 30.29 in ENE 9.0 mph 19.0 mph 47 % 0.00 in 710 W/m2
13:34 58.3 °F 37.0 °F 30.29 in ENE 10.0 mph 19.0 mph 45 % 0.00 in 1039 W/m2
13:39 59.0 °F 37.1 °F 30.29 in ENE 10.0 mph 19.0 mph 44 % 0.00 in 1116 W/m2
13:44 59.4 °F 36.8 °F 30.29 in ENE 10.0 mph 19.0 mph 43 % 0.00 in 1204 W/m2
13:49 59.2 °F 36.7 °F 30.28 in ENE 10.0 mph 18.0 mph 43 % 0.00 in 482 W/m2
13:54 59.2 °F 36.7 °F 30.28 in ENE 10.0 mph 24.0 mph 43 % 0.00 in 482 W/m2
13:59 59.0 °F 36.5 °F 30.29 in ENE 10.0 mph 24.0 mph 43 % 0.00 in 388 W/m2
14:04 59.0 °F 35.3 °F 30.29 in ENE 10.0 mph 23.0 mph 41 % 0.00 in 575 W/m2
14:09 58.6 °F 35.0 °F 30.28 in ENE 10.0 mph 23.0 mph 41 % 0.00 in 367 W/m2
14:14 58.6 °F 35.0 °F 30.29 in ENE 10.0 mph 21.0 mph 41 % 0.00 in 1004 W/m2
14:15 58.6 °F 35.0 °F 30.28 in ENE 9.0 mph 21.0 mph 41 % 0.00 in 942 W/m2
14:20 59.0 °F 35.3 °F 30.28 in ENE 10.0 mph 20.0 mph 41 % 0.00 in 933 W/m2
14:25 59.4 °F 35.0 °F 30.28 in East 10.0 mph 20.0 mph 40 % 0.00 in 360 W/m2
14:30 59.5 °F 36.4 °F 30.28 in East 7.0 mph 18.0 mph 42 % 0.00 in 327 W/m2
14:35 59.2 °F 37.8 °F 30.29 in ENE 7.0 mph 15.0 mph 45 % 0.00 in 285 W/m2
14:40 58.6 °F 37.3 °F 30.29 in ENE 8.0 mph 18.0 mph 45 % 0.00 in 200 W/m2
14:45 57.7 °F 38.2 °F 30.28 in ENE 8.0 mph 20.0 mph 48 % 0.00 in 271 W/m2
14:50 57.6 °F 38.5 °F 30.29 in ENE 7.0 mph 20.0 mph 49 % 0.00 in 214 W/m2
14:55 57.4 °F 37.8 °F 30.28 in ENE 7.0 mph 15.0 mph 48 % 0.00 in 250 W/m2
15:00 57.0 °F 38.5 °F 30.28 in ENE 8.0 mph 15.0 mph 50 % 0.00 in 258 W/m2
15:05 56.8 °F 38.4 °F 30.28 in ENE 6.0 mph 13.0 mph 50 % 0.00 in 225 W/m2
15:10 56.8 °F 38.4 °F 30.28 in ENE 6.0 mph 13.0 mph 50 % 0.00 in 181 W/m2
15:15 56.8 °F 38.9 °F 30.28 in ENE 7.0 mph 18.0 mph 51 % 0.00 in 165 W/m2
15:20 56.5 °F 39.5 °F 30.28 in ENE 9.0 mph 19.0 mph 53 % 0.00 in 174 W/m2
15:25 56.1 °F 39.7 °F 30.28 in ENE 9.0 mph 19.0 mph 54 % 0.00 in 188 W/m2
15:30 55.9 °F 40.5 °F 30.29 in ENE 9.0 mph 18.0 mph 56 % 0.00 in 262 W/m2
15:36 55.9 °F 40.9 °F 30.28 in ENE 10.0 mph 18.0 mph 57 % 0.00 in 360 W/m2
15:41 56.1 °F 41.5 °F 30.28 in ENE 9.0 mph 22.0 mph 58 % 0.00 in 290 W/m2
15:46 56.3 °F 42.1 °F 30.28 in NE 9.0 mph 22.0 mph 59 % 0.00 in 322 W/m2
15:51 56.5 °F 42.8 °F 30.28 in ENE 8.0 mph 16.0 mph 60 % 0.00 in 352 W/m2
15:56 56.8 °F 43.1 °F 30.28 in ENE 9.0 mph 18.0 mph 60 % 0.00 in 450 W/m2
16:01 56.8 °F 43.1 °F 30.28 in ENE 9.0 mph 18.0 mph 60 % 0.00 in 236 W/m2
16:06 56.7 °F 43.4 °F 30.28 in NE 9.0 mph 19.0 mph 61 % 0.00 in 257 W/m2
16:11 56.1 °F 43.3 °F 30.28 in NE 10.0 mph 22.0 mph 62 % 0.00 in 213 W/m2
16:16 55.8 °F 43.8 °F 30.28 in NE 10.0 mph 22.0 mph 64 % 0.00 in 258 W/m2
16:21 55.6 °F 44.0 °F 30.28 in ENE 9.0 mph 18.0 mph 65 % 0.00 in 243 W/m2
16:26 55.4 °F 43.8 °F 30.28 in ENE 9.0 mph 18.0 mph 65 % 0.00 in 202 W/m2
16:31 55.2 °F 43.7 °F 30.28 in ENE 9.0 mph 18.0 mph 65 % 0.00 in 229 W/m2
16:36 54.9 °F 43.7 °F 30.28 in ENE 10.0 mph 18.0 mph 66 % 0.00 in 165 W/m2
16:41 54.9 °F 44.1 °F 30.28 in ENE 8.0 mph 16.0 mph 67 % 0.00 in 213 W/m2
16:46 54.7 °F 43.9 °F 30.28 in ENE 8.0 mph 19.0 mph 67 % 0.00 in 237 W/m2
16:51 54.7 °F 43.9 °F 30.28 in ENE 9.0 mph 21.0 mph 67 % 0.00 in 199 W/m2
16:56 54.7 °F 44.3 °F 30.28 in ENE 9.0 mph 21.0 mph 68 % 0.00 in 237 W/m2
17:01 54.7 °F 44.3 °F 30.28 in ENE 8.0 mph 18.0 mph 68 % 0.00 in 134 W/m2
17:06 54.7 °F 44.3 °F 30.28 in ENE 8.0 mph 14.0 mph 68 % 0.00 in 202 W/m2
17:11 54.7 °F 44.7 °F 30.28 in ENE 8.0 mph 15.0 mph 69 % 0.00 in 120 W/m2
17:16 54.5 °F 44.5 °F 30.28 in ENE 8.0 mph 18.0 mph 69 % 0.00 in 88 W/m2
17:19 54.5 °F 44.5 °F 30.28 in ENE 9.0 mph 18.0 mph 69 % 0.00 in 125 W/m2
17:21 54.3 °F 44.4 °F 30.29 in ENE 9.0 mph 18.0 mph 69 % 0.00 in 123 W/m2
17:26 54.3 °F 44.7 °F 30.28 in ENE 8.0 mph 18.0 mph 70 % 0.00 in 105 W/m2
17:31 54.3 °F 44.7 °F 30.29 in ENE 6.0 mph 13.0 mph 70 % 0.00 in 63 W/m2
17:36 54.3 °F 44.7 °F 30.29 in ENE 6.0 mph 13.0 mph 70 % 0.00 in 93 W/m2
17:41 54.0 °F 44.8 °F 30.29 in ENE 8.0 mph 14.0 mph 71 % 0.00 in 72 W/m2
17:46 54.0 °F 44.8 °F 30.29 in ENE 8.0 mph 16.0 mph 71 % 0.00 in 97 W/m2
17:51 53.8 °F 45.0 °F 30.29 in ENE 8.0 mph 16.0 mph 72 % 0.00 in 74 W/m2
17:56 53.8 °F 45.0 °F 30.29 in ENE 8.0 mph 15.0 mph 72 % 0.00 in 153 W/m2
18:01 53.8 °F 45.0 °F 30.29 in ENE 8.0 mph 20.0 mph 72 % 0.00 in 155 W/m2
18:06 53.8 °F 44.6 °F 30.29 in NE 9.0 mph 20.0 mph 71 % 0.00 in 169 W/m2
18:11 53.8 °F 44.6 °F 30.29 in NE 9.0 mph 20.0 mph 71 % 0.00 in 90 W/m2
18:16 53.6 °F 44.4 °F 30.29 in ENE 9.0 mph 20.0 mph 71 % 0.00 in 70 W/m2
18:21 53.4 °F 44.6 °F 30.29 in NE 8.0 mph 18.0 mph 72 % 0.00 in 49 W/m2
18:26 53.2 °F 44.1 °F 30.29 in NE 8.0 mph 21.0 mph 71 % 0.00 in 42 W/m2
18:31 53.1 °F 44.3 °F 30.29 in ENE 9.0 mph 21.0 mph 72 % 0.00 in 60 W/m2
18:37 52.9 °F 44.1 °F 30.29 in ENE 9.0 mph 16.0 mph 72 % 0.00 in 67 W/m2
18:42 52.9 °F 44.1 °F 30.29 in ENE 9.0 mph 18.0 mph 72 % 0.00 in 58 W/m2
18:47 52.7 °F 44.3 °F 30.29 in NE 8.0 mph 19.0 mph 73 % 0.00 in 49 W/m2
18:52 52.7 °F 44.3 °F 30.29 in NE 9.0 mph 19.0 mph 73 % 0.00 in 42 W/m2
18:57 52.5 °F 44.1 °F 30.30 in ENE 8.0 mph 16.0 mph 73 % 0.00 in 37 W/m2
19:02 52.3 °F 43.9 °F 30.29 in ENE 7.0 mph 19.0 mph 73 % 0.00 in 30 W/m2
19:07 52.3 °F 44.3 °F 30.29 in ENE 8.0 mph 19.0 mph 74 % 0.00 in 30 W/m2
19:12 52.2 °F 44.1 °F 30.30 in ENE 8.0 mph 15.0 mph 74 % 0.00 in 25 W/m2
19:17 52.0 °F 43.9 °F 30.30 in ENE 7.0 mph 15.0 mph 74 % 0.00 in 19 W/m2
19:22 52.0 °F 43.9 °F 30.30 in ENE 7.0 mph 18.0 mph 74 % 0.00 in 18 W/m2
19:27 51.6 °F 44.0 °F 30.30 in ENE 7.0 mph 18.0 mph 75 % 0.00 in 12 W/m2
19:28 51.6 °F 44.0 °F 30.30 in ENE 7.0 mph 18.0 mph 75 % 0.00 in 14 W/m2
19:32 51.6 °F 44.0 °F 30.30 in ENE 7.0 mph 16.0 mph 75 % 0.00 in 12 W/m2
19:37 51.4 °F 43.8 °F 30.30 in ENE 8.0 mph 16.0 mph 75 % 0.00 in 9 W/m2
19:42 51.4 °F 44.1 °F 30.30 in ENE 7.0 mph 13.0 mph 76 % 0.00 in 9 W/m2
19:47 51.3 °F 44.0 °F 30.31 in ENE 8.0 mph 15.0 mph 76 % 0.00 in 7 W/m2
19:52 51.1 °F 44.1 °F 30.31 in ENE 8.0 mph 15.0 mph 77 % 0.00 in 5 W/m2
19:57 51.1 °F 44.1 °F 30.31 in ENE 7.0 mph 14.0 mph 77 % 0.00 in 7 W/m2
20:02 50.9 °F 43.9 °F 30.31 in ENE 6.0 mph 13.0 mph 77 % 0.00 in 5 W/m2
20:07 50.7 °F 44.1 °F 30.31 in ENE 7.0 mph 15.0 mph 78 % 0.00 in 7 W/m2
20:12 50.7 °F 44.1 °F 30.31 in ENE 8.0 mph 15.0 mph 78 % 0.00 in 5 W/m2
20:17 50.5 °F 44.3 °F 30.31 in ENE 8.0 mph 15.0 mph 79 % 0.00 in 5 W/m2
20:22 50.4 °F 44.1 °F 30.31 in ENE 8.0 mph 15.0 mph 79 % 0.00 in 0 W/m2
20:27 50.4 °F 44.1 °F 30.31 in ENE 7.0 mph 15.0 mph 79 % 0.00 in 0 W/m2
20:32 50.4 °F 44.1 °F 30.31 in ENE 6.0 mph 14.0 mph 79 % 0.00 in 0 W/m2
20:37 50.2 °F 43.9 °F 30.32 in ENE 8.0 mph 16.0 mph 79 % 0.00 in 0 W/m2
20:42 50.0 °F 43.7 °F 30.32 in ENE 8.0 mph 16.0 mph 79 % 0.00 in 0 W/m2
20:47 49.8 °F 43.9 °F 30.32 in ENE 8.0 mph 16.0 mph 80 % 0.00 in 0 W/m2
20:50 49.8 °F 43.9 °F 30.32 in ENE 8.0 mph 16.0 mph 80 % 0.00 in 0 W/m2
20:51 49.8 °F 43.9 °F 30.32 in ENE 8.0 mph 16.0 mph 80 % 0.00 in 0 W/m2
20:56 49.6 °F 44.0 °F 30.32 in ENE 7.0 mph 14.0 mph 81 % 0.00 in 0 W/m2
21:01 49.5 °F 43.9 °F 30.33 in NE 7.0 mph 18.0 mph 81 % 0.00 in 0 W/m2
21:06 49.3 °F 43.7 °F 30.33 in NE 8.0 mph 20.0 mph 81 % 0.00 in 0 W/m2
21:11 49.1 °F 43.5 °F 30.33 in NE 8.0 mph 20.0 mph 81 % 0.00 in 0 W/m2
21:16 48.9 °F 43.7 °F 30.32 in NE 8.0 mph 19.0 mph 82 % 0.00 in 0 W/m2
21:21 48.7 °F 43.5 °F 30.33 in NE 7.0 mph 14.0 mph 82 % 0.00 in 0 W/m2
21:26 48.7 °F 43.5 °F 30.32 in NE 6.0 mph 14.0 mph 82 % 0.00 in 0 W/m2
21:31 48.6 °F 43.3 °F 30.33 in NE 6.0 mph 14.0 mph 82 % 0.00 in 0 W/m2
21:36 48.6 °F 43.3 °F 30.32 in NE 6.0 mph 14.0 mph 82 % 0.00 in 0 W/m2
21:41 48.6 °F 43.3 °F 30.33 in NE 5.0 mph 14.0 mph 82 % 0.00 in 0 W/m2
21:46 48.4 °F 43.1 °F 30.33 in NE 6.0 mph 15.0 mph 82 % 0.00 in 0 W/m2
21:51 48.2 °F 43.3 °F 30.33 in NE 7.0 mph 15.0 mph 83 % 0.00 in 0 W/m2
21:56 48.0 °F 43.1 °F 30.33 in NE 7.0 mph 15.0 mph 83 % 0.00 in 0 W/m2
22:01 48.0 °F 43.1 °F 30.33 in NE 7.0 mph 15.0 mph 83 % 0.00 in 0 W/m2
22:06 48.0 °F 43.1 °F 30.33 in NE 5.0 mph 14.0 mph 83 % 0.00 in 0 W/m2
22:11 47.8 °F 42.9 °F 30.33 in NE 5.0 mph 12.0 mph 83 % 0.00 in 0 W/m2
22:16 47.8 °F 43.2 °F 30.33 in NE 7.0 mph 13.0 mph 84 % 0.00 in 0 W/m2
22:21 47.8 °F 42.9 °F 30.33 in NE 7.0 mph 13.0 mph 83 % 0.00 in 0 W/m2
22:26 47.7 °F 42.8 °F 30.33 in NE 6.0 mph 14.0 mph 83 % 0.00 in 0 W/m2
22:31 47.7 °F 43.1 °F 30.33 in NE 5.0 mph 14.0 mph 84 % 0.00 in 0 W/m2
22:36 47.7 °F 43.1 °F 30.33 in NE 2.0 mph 10.0 mph 84 % 0.00 in 0 W/m2
22:41 47.7 °F 42.8 °F 30.33 in NE 2.0 mph 13.0 mph 83 % 0.00 in 0 W/m2
22:46 47.7 °F 42.8 °F 30.33 in NNE 4.0 mph 13.0 mph 83 % 0.00 in 0 W/m2
22:52 47.7 °F 42.8 °F 30.33 in NNE 4.0 mph 10.0 mph 83 % 0.00 in 0 W/m2
22:57 47.5 °F 42.6 °F 30.33 in NNE 6.0 mph 14.0 mph 83 % 0.00 in 0 W/m2
23:02 47.5 °F 42.9 °F 30.33 in NNE 6.0 mph 14.0 mph 84 % 0.00 in 0 W/m2
23:07 47.5 °F 42.9 °F 30.33 in NNE 5.0 mph 12.0 mph 84 % 0.00 in 0 W/m2
23:11 47.5 °F 42.9 °F 30.33 in NNE 6.0 mph 12.0 mph 84 % 0.00 in 0 W/m2
23:12 47.5 °F 42.9 °F 30.33 in NNE 6.0 mph 12.0 mph 84 % 0.00 in 0 W/m2
23:17 47.3 °F 42.7 °F 30.33 in NE 6.0 mph 15.0 mph 84 % 0.00 in 0 W/m2
23:22 47.3 °F 43.0 °F 30.33 in NE 7.0 mph 15.0 mph 85 % 0.00 in 0 W/m2
23:27 47.1 °F 42.8 °F 30.32 in NNE 6.0 mph 13.0 mph 85 % 0.00 in 0 W/m2
23:32 47.1 °F 42.8 °F 30.32 in NNE 5.0 mph 12.0 mph 85 % 0.00 in 0 W/m2
23:37 47.1 °F 42.8 °F 30.32 in NNE 6.0 mph 13.0 mph 85 % 0.00 in 0 W/m2
23:42 47.1 °F 42.8 °F 30.32 in NNE 7.0 mph 13.0 mph 85 % 0.00 in 0 W/m2
23:47 47.1 °F 42.8 °F 30.32 in NNE 6.0 mph 12.0 mph 85 % 0.00 in 0 W/m2
23:49 47.1 °F 42.8 °F 30.32 in NNE 6.0 mph 14.0 mph 85 % 0.00 in 0 W/m2
23:54 47.1 °F 42.8 °F 30.32 in NNE 7.0 mph 14.0 mph 85 % 0.00 in 0 W/m2
23:59 47.1 °F 42.8 °F 30.32 in NNE 6.0 mph 12.0 mph 85 % 0.00 in 0 W/m2
Delerius-Weather
Compliments of Weather Underground - 2.25 mb

Data updates at regular intervals.